Time;durP1;ratioP1;P1;durP2;ratioP2;P2;SDS_P1;SDS_P2;PMS_P1;PMS_P2;Temp;Humidity;BMP_temperature;BMP_pressure;BME280_temperature;BME280_humidity;BME280_pressure;Samples;Min_cycle;Max_cycle;Signal;HPM_P1;HPM_P2
2023/05/15 00:00:14;;;;;;;6.73;6.13;;;12.00;99.90;;;;;;5016525;28;20209;-71
2023/05/15 00:02:39;;;;;;;6.40;5.77;;;12.10;99.90;;;;;;5034347;28;20441;-72
2023/05/15 00:05:07;;;;;;;6.97;5.60;;;12.00;99.90;;;;;;5034523;28;20443;-72
2023/05/15 00:07:33;;;;;;;5.53;5.03;;;12.10;99.90;;;;;;5033600;28;20204;-71
2023/05/15 00:09:58;;;;;;;6.60;5.70;;;12.10;99.90;;;;;;5034255;28;20424;-72
2023/05/15 00:12:24;;;;;;;6.57;5.60;;;12.00;99.90;;;;;;5034100;28;20932;-72
2023/05/15 00:14:49;;;;;;;8.27;6.10;;;12.10;99.90;;;;;;5034079;28;20199;-72
2023/05/15 00:17:15;;;;;;;5.67;5.17;;;12.20;99.90;;;;;;5033884;28;20215;-72
2023/05/15 00:19:41;;;;;;;6.23;5.43;;;12.20;99.90;;;;;;5033776;28;20240;-72
2023/05/15 00:22:07;;;;;;;5.53;5.10;;;12.10;99.90;;;;;;5033528;28;20545;-72
2023/05/15 00:24:33;;;;;;;6.63;5.50;;;12.10;99.90;;;;;;5033808;28;20166;-72
2023/05/15 00:27:00;;;;;;;8.00;6.57;;;12.10;99.90;;;;;;5033731;28;20432;-72
2023/05/15 00:29:25;;;;;;;5.83;5.23;;;12.20;99.90;;;;;;5033729;28;20491;-72
2023/05/15 00:31:51;;;;;;;7.23;6.30;;;12.20;99.90;;;;;;5034162;28;20480;-72
2023/05/15 00:34:16;;;;;;;6.00;5.40;;;12.20;99.90;;;;;;5033374;28;20167;-72
2023/05/15 00:36:42;;;;;;;6.83;6.03;;;12.30;99.90;;;;;;5034730;28;20281;-72
2023/05/15 00:39:08;;;;;;;6.63;6.03;;;12.40;99.90;;;;;;5033670;28;20171;-71
2023/05/15 00:41:34;;;;;;;5.93;5.43;;;12.50;99.90;;;;;;5032924;28;20169;-72
2023/05/15 00:44:00;;;;;;;6.20;5.60;;;12.50;99.90;;;;;;5033502;28;20190;-72
2023/05/15 00:46:31;;;;;;;6.63;6.07;;;12.60;99.90;;;;;;5033613;28;20754;-71
2023/05/15 00:48:57;;;;;;;5.73;4.93;;;12.60;99.90;;;;;;5015689;28;20519;-72
2023/05/15 00:51:23;;;;;;;5.53;5.07;;;12.60;99.90;;;;;;5033319;28;20548;-71
2023/05/15 00:53:51;;;;;;;4.93;4.53;;;12.60;99.90;;;;;;5032802;28;20488;-72
2023/05/15 00:56:17;;;;;;;5.70;5.07;;;12.60;99.90;;;;;;5033614;28;20428;-71
2023/05/15 00:58:46;;;;;;;6.80;5.27;;;12.70;99.90;;;;;;5033101;28;20495;-71
2023/05/15 01:01:14;;;;;;;6.10;5.40;;;12.70;99.90;;;;;;5020467;28;20409;-71
2023/05/15 01:03:40;;;;;;;8.57;5.73;;;12.80;99.90;;;;;;5014145;28;20406;-71
2023/05/15 01:06:06;;;;;;;5.93;5.33;;;12.90;99.90;;;;;;5013471;28;20500;-72
2023/05/15 01:08:53;;;;;;;6.33;5.40;;;12.90;99.90;;;;;;5012913;28;20513;-71
2023/05/15 01:11:20;;;;;;;6.07;5.57;;;12.90;99.90;;;;;;5013553;28;20283;-72
2023/05/15 01:13:45;;;;;;;5.20;4.80;;;13.00;99.90;;;;;;5013710;28;20445;-71
2023/05/15 01:16:11;;;;;;;5.40;4.90;;;13.00;99.90;;;;;;5013373;28;20442;-72
2023/05/15 01:18:37;;;;;;;6.03;5.43;;;13.00;99.90;;;;;;5013056;28;20250;-71
2023/05/15 01:21:16;;;;;;;5.87;5.37;;;12.90;99.90;;;;;;5014833;28;20260;-72
2023/05/15 01:23:45;;;;;;;6.40;4.73;;;12.90;99.90;;;;;;5032464;28;20152;-72
2023/05/15 01:26:56;;;;;;;5.90;5.40;;;13.00;99.90;;;;;;5015184;28;20500;-72
2023/05/15 01:29:26;;;;;;;5.33;4.83;;;13.00;99.90;;;;;;5032900;28;20390;-72
2023/05/15 01:31:57;;;;;;;5.43;4.93;;;13.00;99.90;;;;;;5032271;28;20443;-72
2023/05/15 01:34:30;;;;;;;5.90;5.33;;;12.90;99.90;;;;;;5032839;28;20898;-72
2023/05/15 01:36:58;;;;;;;5.80;5.17;;;12.80;99.90;;;;;;5032574;28;20426;-72
2023/05/15 01:39:27;;;;;;;6.17;4.93;;;12.70;99.90;;;;;;5032803;28;20489;-72
2023/05/15 01:42:05;;;;;;;4.80;4.40;;;12.60;99.90;;;;;;5032741;28;20409;-72
2023/05/15 01:44:35;;;;;;;5.00;4.40;;;12.50;99.90;;;;;;5033040;28;20386;-72
2023/05/15 01:47:12;;;;;;;4.67;4.27;;;12.50;99.90;;;;;;5032906;28;20869;-70
2023/05/15 01:49:40;;;;;;;6.47;5.20;;;12.50;99.90;;;;;;5032997;28;20391;-71
2023/05/15 01:52:18;;;;;;;6.50;5.33;;;12.50;99.90;;;;;;5033122;28;20853;-72
2023/05/15 01:54:45;;;;;;;5.90;4.50;;;12.50;99.90;;;;;;5036891;28;20413;-72
2023/05/15 01:57:11;;;;;;;5.80;4.50;;;12.60;99.90;;;;;;5036540;28;20449;-72
2023/05/15 01:59:38;;;;;;;5.80;5.13;;;12.60;99.90;;;;;;5036461;28;20395;-72
2023/05/15 02:02:04;;;;;;;5.60;5.10;;;12.60;99.90;;;;;;5018719;28;20924;-72
2023/05/15 02:04:31;;;;;;;6.83;5.70;;;12.60;99.90;;;;;;5036924;28;20401;-72
2023/05/15 02:07:00;;;;;;;5.10;4.60;;;12.70;99.90;;;;;;5036372;28;20431;-72
2023/05/15 02:09:27;;;;;;;5.63;5.07;;;12.80;99.90;;;;;;5036315;28;20926;-70
2023/05/15 02:11:53;;;;;;;4.23;3.80;;;12.90;99.90;;;;;;5036288;28;20446;-72
2023/05/15 02:14:20;;;;;;;4.90;4.27;;;12.90;99.90;;;;;;5036496;28;20410;-72
2023/05/15 02:16:45;;;;;;;4.67;4.27;;;13.00;99.90;;;;;;5035993;28;20456;-72
2023/05/15 02:19:11;;;;;;;5.33;4.87;;;13.00;99.90;;;;;;5036464;28;20402;-72
2023/05/15 02:21:36;;;;;;;5.70;5.10;;;13.00;99.90;;;;;;5035807;28;20553;-71
2023/05/15 02:24:02;;;;;;;4.63;4.23;;;13.00;99.90;;;;;;5018264;28;20669;-72
2023/05/15 02:26:46;;;;;;;6.10;4.97;;;12.90;99.90;;;;;;5036058;28;20180;-72
2023/05/15 02:29:20;;;;;;;6.23;5.63;;;12.80;99.90;;;;;;5036454;28;20175;-71
2023/05/15 02:32:15;;;;;;;5.43;4.70;;;12.70;99.90;;;;;;5018311;28;20436;-71
2023/05/15 02:35:05;;;;;;;7.13;4.70;;;12.70;99.90;;;;;;5036492;28;20394;-72
2023/05/15 02:37:33;;;;;;;5.70;4.30;;;12.70;99.90;;;;;;5035634;28;20462;-72
2023/05/15 02:40:00;;;;;;;6.73;5.30;;;12.60;99.90;;;;;;5036245;28;20416;-73
2023/05/15 02:42:28;;;;;;;5.90;4.87;;;12.50;99.90;;;;;;5036403;28;20473;-73
2023/05/15 02:44:55;;;;;;;4.73;4.33;;;12.50;99.90;;;;;;5036226;28;20417;-72
2023/05/15 02:47:22;;;;;;;5.87;5.37;;;12.40;99.90;;;;;;5035869;28;20504;-72
2023/05/15 02:49:48;;;;;;;5.53;4.90;;;12.30;99.90;;;;;;5035765;28;20413;-71
2023/05/15 02:52:14;;;;;;;5.90;4.80;;;12.30;99.90;;;;;;5035130;28;20453;-71
2023/05/15 02:54:40;;;;;;;6.50;4.80;;;12.20;99.90;;;;;;5035461;28;20467;-71
2023/05/15 02:57:06;;;;;;;6.00;4.60;;;12.20;99.90;;;;;;5035810;28;20230;-71
2023/05/15 02:59:32;;;;;;;5.47;4.97;;;12.30;99.90;;;;;;5036017;28;20463;-71
2023/05/15 03:01:58;;;;;;;6.90;5.37;;;12.30;99.90;;;;;;5035784;28;20406;-72
2023/05/15 03:04:24;;;;;;;6.27;4.93;;;12.30;99.90;;;;;;5034393;28;20410;-71
2023/05/15 03:06:49;;;;;;;5.37;4.80;;;12.40;99.90;;;;;;5035085;28;20203;-71
2023/05/15 03:09:15;;;;;;;4.43;4.03;;;12.50;99.90;;;;;;5035108;28;20253;-72
2023/05/15 03:11:41;;;;;;;5.57;5.07;;;12.60;99.90;;;;;;5020210;28;20674;-72
2023/05/15 03:14:06;;;;;;;5.30;4.90;;;12.60;99.90;;;;;;5015695;28;20165;-71
2023/05/15 03:16:32;;;;;;;5.20;4.70;;;12.60;99.90;;;;;;5015211;28;20175;-72
2023/05/15 03:18:58;;;;;;;5.23;4.73;;;12.70;99.90;;;;;;4997750;28;20662;-72
2023/05/15 03:21:23;;;;;;;6.53;4.50;;;12.70;99.90;;;;;;5018930;28;20268;-72
2023/05/15 03:23:49;;;;;;;6.10;4.63;;;12.80;99.90;;;;;;5034414;28;20180;-72
2023/05/15 03:26:14;;;;;;;5.00;4.50;;;12.70;99.90;;;;;;5035023;28;20666;-71
2023/05/15 03:28:40;;;;;;;5.90;5.30;;;12.80;99.90;;;;;;5034838;28;20602;-71
2023/05/15 03:31:07;;;;;;;5.23;4.83;;;12.90;99.90;;;;;;5034805;28;20274;-72
2023/05/15 03:33:33;;;;;;;4.50;4.10;;;13.00;99.90;;;;;;5034842;28;20225;-71
2023/05/15 03:35:58;;;;;;;5.10;4.67;;;13.10;99.90;;;;;;5034931;28;20784;-72
2023/05/15 03:38:24;;;;;;;5.77;5.20;;;13.00;99.90;;;;;;5034615;28;20802;-72
2023/05/15 03:40:49;;;;;;;5.10;4.60;;;13.10;99.90;;;;;;5035250;28;20596;-72
2023/05/15 03:43:15;;;;;;;4.50;4.10;;;13.10;99.90;;;;;;5034650;28;20231;-71
2023/05/15 03:45:41;;;;;;;8.03;4.73;;;13.20;99.90;;;;;;5034949;28;20298;-72
2023/05/15 03:48:06;;;;;;;5.47;4.97;;;13.10;99.90;;;;;;5016037;28;20232;-72
2023/05/15 03:50:32;;;;;;;5.80;5.20;;;13.10;99.90;;;;;;5014617;28;20200;-71
2023/05/15 03:52:58;;;;;;;4.97;4.57;;;13.00;99.90;;;;;;5030209;28;20187;-72
2023/05/15 03:55:23;;;;;;;5.70;5.13;;;13.10;99.90;;;;;;5034682;28;20873;-72
2023/05/15 03:57:49;;;;;;;5.50;5.00;;;13.10;99.90;;;;;;5034299;28;20196;-71
2023/05/15 04:00:15;;;;;;;4.67;4.27;;;13.00;99.90;;;;;;5034614;28;20510;-71
2023/05/15 04:02:41;;;;;;;5.77;5.27;;;13.10;99.90;;;;;;5034314;28;20227;-72
2023/05/15 04:05:07;;;;;;;5.50;5.00;;;13.10;99.90;;;;;;5034167;28;20168;-72
2023/05/15 04:07:34;;;;;;;5.67;4.73;;;13.20;99.90;;;;;;5033759;28;20933;-72
2023/05/15 04:10:00;;;;;;;5.40;4.90;;;13.10;99.90;;;;;;5034406;28;20419;-71
2023/05/15 04:12:30;;;;;;;5.60;5.10;;;13.30;99.90;;;;;;5033977;28;20493;-71
2023/05/15 04:15:14;;;;;;;5.67;5.17;;;13.30;99.90;;;;;;5034446;28;20170;-71
2023/05/15 04:17:39;;;;;;;6.10;5.50;;;13.30;99.90;;;;;;5054479;23;20496;-76
2023/05/15 04:20:06;;;;;;;5.40;4.90;;;13.20;99.90;;;;;;5034610;28;20395;-75
2023/05/15 04:22:31;;;;;;;5.07;4.67;;;13.40;99.90;;;;;;5033112;28;20183;-76
2023/05/15 04:24:57;;;;;;;5.13;4.70;;;13.50;99.90;;;;;;5034010;28;20403;-76
2023/05/15 04:27:22;;;;;;;8.10;4.60;;;13.50;99.90;;;;;;5033985;28;20179;-76
2023/05/15 04:29:48;;;;;;;5.10;4.70;;;13.60;99.90;;;;;;5016343;28;20171;-76
2023/05/15 04:32:13;;;;;;;4.87;4.57;;;13.60;99.90;;;;;;5033944;28;20246;-76
2023/05/15 04:34:39;;;;;;;5.30;4.83;;;13.70;99.90;;;;;;5033886;28;20179;-76
2023/05/15 04:37:05;;;;;;;6.77;5.67;;;13.80;99.90;;;;;;5033327;28;20170;-76
2023/05/15 04:39:31;;;;;;;5.77;5.27;;;13.90;99.90;;;;;;5033904;28;20493;-76
2023/05/15 04:41:56;;;;;;;6.87;6.20;;;13.90;99.90;;;;;;5033771;28;20467;-76
2023/05/15 04:44:22;;;;;;;5.73;5.23;;;13.90;99.90;;;;;;5033795;28;20167;-76
2023/05/15 04:46:47;;;;;;;5.73;5.23;;;14.00;99.90;;;;;;5033561;28;20197;-76
2023/05/15 04:49:13;;;;;;;6.27;5.77;;;14.10;99.90;;;;;;5033558;28;20205;-76
2023/05/15 04:51:40;;;;;;;5.70;5.30;;;14.20;99.90;;;;;;5032974;28;20196;-75
2023/05/15 04:54:06;;;;;;;5.57;5.07;;;14.30;99.90;;;;;;5033387;28;20160;-76
2023/05/15 04:56:32;;;;;;;6.50;5.90;;;14.40;99.90;;;;;;5033839;28;20416;-76
2023/05/15 04:58:57;;;;;;;5.90;5.40;;;14.60;99.90;;;;;;5033712;28;20428;-76
2023/05/15 05:01:23;;;;;;;6.00;5.43;;;14.70;99.90;;;;;;5033606;28;20173;-76
2023/05/15 05:03:48;;;;;;;7.03;6.43;;;14.80;99.90;;;;;;5033347;28;20180;-76
2023/05/15 05:06:14;;;;;;;6.33;5.73;;;14.90;99.90;;;;;;5019565;28;20182;-75
2023/05/15 05:08:40;;;;;;;5.50;5.00;;;15.00;99.90;;;;;;5013328;28;20198;-76
2023/05/15 05:11:06;;;;;;;6.47;5.90;;;15.20;99.90;;;;;;5013481;28;20967;-76
2023/05/15 05:13:31;;;;;;;6.40;5.87;;;15.30;99.90;;;;;;5013564;28;20183;-76
2023/05/15 05:15:57;;;;;;;10.30;6.27;;;15.40;99.90;;;;;;5013644;28;20173;-76
2023/05/15 05:18:22;;;;;;;7.30;6.27;;;15.30;99.90;;;;;;5013468;28;20206;-76
2023/05/15 05:20:49;;;;;;;8.00;6.83;;;15.30;99.90;;;;;;5031311;28;20172;-76
2023/05/15 05:23:15;;;;;;;7.17;6.47;;;15.20;99.90;;;;;;5032762;28;20166;-76
2023/05/15 05:25:40;;;;;;;7.03;6.43;;;15.30;99.90;;;;;;5032182;28;20422;-77
2023/05/15 05:28:06;;;;;;;6.47;5.97;;;15.40;99.90;;;;;;5032839;28;20617;-76
2023/05/15 05:30:31;;;;;;;6.30;5.70;;;15.60;99.90;;;;;;5032610;28;20213;-77
2023/05/15 05:32:57;;;;;;;7.30;6.60;;;15.90;99.90;;;;;;5023882;28;20170;-76
2023/05/15 05:35:22;;;;;;;7.77;7.13;;;15.40;99.90;;;;;;5016479;28;20643;-76
2023/05/15 05:37:48;;;;;;;7.47;6.77;;;15.20;99.90;;;;;;5033057;28;20183;-76
2023/05/15 05:40:14;;;;;;;8.07;7.23;;;15.10;99.90;;;;;;5033040;28;20161;-76
2023/05/15 05:42:40;;;;;;;7.90;6.97;;;15.30;99.90;;;;;;5015704;28;20181;-77
2023/05/15 05:45:06;;;;;;;8.70;7.90;;;15.30;99.90;;;;;;5033120;28;20440;-76
2023/05/15 05:47:32;;;;;;;8.00;7.30;;;15.20;99.90;;;;;;5033467;28;20195;-78
2023/05/15 05:49:57;;;;;;;7.63;7.03;;;15.40;99.90;;;;;;5033493;28;20404;-80
2023/05/15 05:52:23;;;;;;;9.97;7.60;;;15.60;99.90;;;;;;5032846;28;20216;-77
2023/05/15 05:54:48;;;;;;;9.37;8.47;;;15.60;99.90;;;;;;5033728;28;20199;-77
2023/05/15 05:57:14;;;;;;;9.40;7.87;;;15.70;99.90;;;;;;5033417;28;20594;-76
2023/05/15 05:59:40;;;;;;;8.47;7.67;;;15.60;99.90;;;;;;5033671;28;20187;-77
2023/05/15 06:02:07;;;;;;;9.13;8.33;;;15.70;99.90;;;;;;5033562;28;20194;-76
2023/05/15 06:04:33;;;;;;;8.70;7.80;;;15.60;99.90;;;;;;5032894;28;20168;-76
2023/05/15 06:06:58;;;;;;;8.73;7.93;;;15.60;99.90;;;;;;5032875;28;20769;-75
2023/05/15 06:09:24;;;;;;;9.67;8.77;;;15.30;99.90;;;;;;5033438;28;20497;-77
2023/05/15 06:11:49;;;;;;;10.30;9.37;;;15.10;99.90;;;;;;5033069;28;20196;-75
2023/05/15 06:14:15;;;;;;;9.83;8.93;;;15.20;99.90;;;;;;5035226;28;20354;-77
2023/05/15 06:16:41;;;;;;;8.60;7.90;;;15.40;99.90;;;;;;5015665;28;20556;-76
2023/05/15 06:19:06;;;;;;;9.10;8.40;;;15.60;99.90;;;;;;5014987;28;20210;-72
2023/05/15 06:21:32;;;;;;;10.07;9.20;;;15.60;99.90;;;;;;5012748;28;20175;-73
2023/05/15 06:23:58;;;;;;;9.50;8.60;;;15.50;99.90;;;;;;5012591;28;20250;-74
2023/05/15 06:26:24;;;;;;;8.90;8.10;;;15.30;99.90;;;;;;5012839;28;20415;-74
2023/05/15 06:28:50;;;;;;;8.60;7.80;;;15.50;99.90;;;;;;4995442;28;20204;-73
2023/05/15 06:31:16;;;;;;;9.50;8.60;;;15.60;99.90;;;;;;5013081;28;20444;-72
2023/05/15 06:33:42;;;;;;;9.03;8.30;;;15.60;99.90;;;;;;5012903;28;20172;-73
2023/05/15 06:36:07;;;;;;;8.77;8.07;;;15.60;99.90;;;;;;5013753;28;20972;-71
2023/05/15 06:38:33;;;;;;;9.07;8.27;;;15.50;99.90;;;;;;5013302;28;20183;-77
2023/05/15 06:40:58;;;;;;;8.80;8.00;;;15.60;99.90;;;;;;5017417;28;20208;-73
2023/05/15 06:43:24;;;;;;;7.63;7.00;;;15.70;99.90;;;;;;5016730;28;20171;-73
2023/05/15 06:45:50;;;;;;;8.77;7.97;;;15.70;99.90;;;;;;5016825;28;20179;-72
2023/05/15 06:48:15;;;;;;;8.23;7.53;;;15.80;99.90;;;;;;5018661;28;20564;-73
2023/05/15 06:50:41;;;;;;;8.27;7.57;;;15.90;99.90;;;;;;5016614;28;20329;-73
2023/05/15 06:53:06;;;;;;;7.93;7.23;;;15.90;99.90;;;;;;5031535;28;20171;-73
2023/05/15 06:55:33;;;;;;;8.57;7.87;;;16.00;99.90;;;;;;5035908;28;20166;-73
2023/05/15 06:57:59;;;;;;;7.47;6.87;;;16.10;99.90;;;;;;5035887;28;20237;-73
2023/05/15 07:00:24;;;;;;;7.50;6.70;;;16.30;99.90;;;;;;5035919;28;20399;-72
2023/05/15 07:02:50;;;;;;;7.63;6.83;;;16.40;99.90;;;;;;5035942;28;20174;-73
2023/05/15 07:05:16;;;;;;;6.73;6.20;;;16.60;99.90;;;;;;5035611;28;20885;-72
2023/05/15 07:07:41;;;;;;;6.67;6.07;;;16.40;99.90;;;;;;5035194;28;20221;-73
2023/05/15 07:10:08;;;;;;;6.53;6.00;;;16.30;99.90;;;;;;5035428;28;20228;-73
2023/05/15 07:12:33;;;;;;;5.63;5.23;;;16.30;99.90;;;;;;5029267;28;20191;-74
2023/05/15 07:14:59;;;;;;;6.60;6.00;;;16.20;99.90;;;;;;5015813;28;20434;-72
2023/05/15 07:17:25;;;;;;;8.07;6.60;;;16.30;99.90;;;;;;5015447;28;20278;-72
2023/05/15 07:19:50;;;;;;;6.87;6.30;;;16.30;99.90;;;;;;5015771;28;20633;-73
2023/05/15 07:22:16;;;;;;;6.50;6.00;;;16.40;99.90;;;;;;5005471;28;20177;-70
2023/05/15 07:24:41;;;;;;;7.07;6.37;;;16.50;99.90;;;;;;5034279;28;20669;-73
2023/05/15 07:27:07;;;;;;;5.67;5.17;;;16.50;99.90;;;;;;5034834;28;20170;-76
2023/05/15 07:29:32;;;;;;;5.23;4.83;;;16.70;99.90;;;;;;5035593;28;20182;-74
2023/05/15 07:31:58;;;;;;;9.37;5.97;;;16.60;99.90;;;;;;5033744;28;20621;-75
2023/05/15 07:34:23;;;;;;;5.13;4.73;;;16.70;99.90;;;;;;5017262;28;20192;-74
2023/05/15 07:36:49;;;;;;;4.80;4.40;;;16.90;99.90;;;;;;5034876;28;20253;-74
2023/05/15 07:39:14;;;;;;;5.00;4.23;;;16.90;99.90;;;;;;5016983;28;20171;-74
2023/05/15 07:41:40;;;;;;;5.77;5.27;;;16.80;99.90;;;;;;5034946;28;20595;-73
2023/05/15 07:44:06;;;;;;;4.70;4.30;;;16.70;99.90;;;;;;5035028;28;20195;-76
2023/05/15 07:46:33;;;;;;;4.27;3.83;;;16.70;99.90;;;;;;5035434;28;20171;-75
2023/05/15 07:48:59;;;;;;;5.60;5.10;;;16.50;99.90;;;;;;5034943;28;20194;-76
2023/05/15 07:51:24;;;;;;;9.13;5.50;;;16.60;99.90;;;;;;5033892;28;20814;-74
2023/05/15 07:53:50;;;;;;;5.90;4.47;;;16.60;99.90;;;;;;5034727;28;20547;-74
2023/05/15 07:56:16;;;;;;;4.67;4.27;;;16.60;99.90;;;;;;5034872;28;20167;-74
2023/05/15 07:58:41;;;;;;;4.30;3.97;;;16.40;99.90;;;;;;5035290;28;20191;-70
2023/05/15 08:01:07;;;;;;;4.83;4.40;;;16.70;99.90;;;;;;5034817;28;20217;-71
2023/05/15 08:03:32;;;;;;;5.37;4.83;;;16.70;99.90;;;;;;5034758;28;20194;-73
2023/05/15 08:05:58;;;;;;;5.43;4.93;;;16.80;99.90;;;;;;5034658;28;20168;-72
2023/05/15 08:08:24;;;;;;;7.13;5.53;;;16.80;99.90;;;;;;5033951;28;20658;-72
2023/05/15 08:10:50;;;;;;;5.17;4.77;;;16.80;99.90;;;;;;5034466;28;20441;-73
2023/05/15 08:13:15;;;;;;;4.80;4.40;;;17.10;99.90;;;;;;5034260;28;20170;-72
2023/05/15 08:15:42;;;;;;;5.70;5.20;;;17.10;99.90;;;;;;5034108;28;20167;-73
2023/05/15 08:18:09;;;;;;;5.27;4.77;;;17.10;99.90;;;;;;5034533;28;20206;-72
2023/05/15 08:20:34;;;;;;;4.87;4.47;;;17.00;99.90;;;;;;5034287;28;20414;-72
2023/05/15 08:23:00;;;;;;;5.60;5.10;;;17.00;99.90;;;;;;5033671;28;20421;-72
2023/05/15 08:25:25;;;;;;;5.13;4.63;;;17.10;99.90;;;;;;5034404;28;20245;-75
2023/05/15 08:27:51;;;;;;;4.57;4.17;;;17.10;99.90;;;;;;5034121;28;20668;-75
2023/05/15 08:30:17;;;;;;;5.07;4.60;;;17.20;99.90;;;;;;5034267;28;20182;-74
2023/05/15 08:32:44;;;;;;;4.53;4.13;;;17.40;99.90;;;;;;5034322;28;20171;-74
2023/05/15 08:35:10;;;;;;;4.50;4.10;;;17.50;99.90;;;;;;5033873;28;20163;-74
2023/05/15 08:37:36;;;;;;;4.13;3.70;;;17.80;99.90;;;;;;5033206;28;20525;-74
2023/05/15 08:40:04;;;;;;;4.40;4.00;;;18.10;99.90;;;;;;5033785;28;20438;-73
2023/05/15 08:42:48;;;;;;;4.50;4.10;;;18.10;99.90;;;;;;5033779;28;20794;-71
2023/05/15 08:45:14;;;;;;;4.70;4.30;;;18.10;99.90;;;;;;5033903;28;20394;-72
2023/05/15 08:47:41;;;;;;;4.30;4.00;;;18.00;99.90;;;;;;5032456;28;20536;-72
2023/05/15 08:50:12;;;;;;;5.00;4.60;;;18.00;99.90;;;;;;5033571;28;20547;-73
2023/05/15 08:52:44;;;;;;;5.00;4.60;;;17.90;99.90;;;;;;5033749;28;20465;-74
2023/05/15 08:55:10;;;;;;;4.53;4.23;;;18.20;99.90;;;;;;5033810;28;20375;-72
2023/05/15 08:57:36;;;;;;;6.90;4.90;;;18.60;99.90;;;;;;5033053;28;20936;-73
2023/05/15 09:00:07;;;;;;;4.90;4.50;;;18.50;99.90;;;;;;5033580;28;20892;-74
2023/05/15 09:02:37;;;;;;;4.30;3.93;;;18.50;99.90;;;;;;5032342;28;20417;-73
2023/05/15 09:05:05;;;;;;;4.93;4.43;;;18.40;99.90;;;;;;5033281;28;20413;-73
2023/05/15 09:07:31;;;;;;;5.57;4.97;;;18.40;99.90;;;;;;5033312;28;20464;-74
2023/05/15 09:09:57;;;;;;;5.30;4.80;;;18.20;99.90;;;;;;5033156;28;20472;-73
2023/05/15 09:12:25;;;;;;;6.83;4.40;;;18.00;99.90;;;;;;5033206;28;20442;-71
2023/05/15 09:15:06;;;;;;;9.77;5.53;;;18.00;99.90;;;;;;5034820;28;20458;-74
2023/05/15 09:17:32;;;;;;;5.63;4.53;;;18.10;99.90;;;;;;5023698;28;20454;-72
2023/05/15 09:19:57;;;;;;;4.50;4.10;;;18.10;99.90;;;;;;5014197;28;20398;-72
2023/05/15 09:22:24;;;;;;;5.03;4.53;;;18.20;99.90;;;;;;5015806;28;20168;-72
2023/05/15 09:24:51;;;;;;;5.13;4.60;;;18.30;99.90;;;;;;5015257;28;20171;-73
2023/05/15 09:27:18;;;;;;;5.57;5.17;;;18.40;99.90;;;;;;5033769;28;20422;-70
2023/05/15 09:29:45;;;;;;;6.03;5.50;;;18.30;99.90;;;;;;5033922;28;20426;-74
2023/05/15 09:32:13;;;;;;;8.20;5.23;;;18.50;99.90;;;;;;5032534;28;20441;-74
2023/05/15 09:34:41;;;;;;;7.63;5.27;;;18.40;99.90;;;;;;5033087;28;20480;-74
2023/05/15 09:37:08;;;;;;;5.57;4.47;;;18.30;99.90;;;;;;5033229;28;20468;-73
2023/05/15 09:39:43;;;;;;;4.73;4.33;;;18.00;99.90;;;;;;5033146;28;20486;-75
2023/05/15 09:42:10;;;;;;;5.07;4.67;;;18.10;99.90;;;;;;5035756;28;20389;-71
2023/05/15 09:44:41;;;;;;;5.70;5.10;;;18.30;99.90;;;;;;5033211;28;20409;-76
2023/05/15 09:47:07;;;;;;;5.37;4.83;;;18.60;99.90;;;;;;5032489;28;20416;-72
2023/05/15 09:49:33;;;;;;;4.80;4.40;;;18.70;99.90;;;;;;5033449;28;20402;-75
2023/05/15 09:51:59;;;;;;;5.40;4.90;;;18.70;99.90;;;;;;5031672;28;21006;-75
2023/05/15 09:54:29;;;;;;;4.77;4.37;;;18.90;99.90;;;;;;5032813;28;20167;-73
2023/05/15 09:56:55;;;;;;;5.03;4.53;;;18.90;99.90;;;;;;5033423;28;20774;-74
2023/05/15 09:59:20;;;;;;;5.10;4.60;;;19.10;99.90;;;;;;5033331;28;20884;-74
2023/05/15 10:01:49;;;;;;;5.10;4.70;;;19.10;99.90;;;;;;5033085;28;20493;-74
2023/05/15 10:04:15;;;;;;;4.60;4.30;;;19.10;99.90;;;;;;5032951;28;20695;-73
2023/05/15 10:06:45;;;;;;;4.03;3.73;;;18.80;99.90;;;;;;5032821;28;20782;-74
2023/05/15 10:09:12;;;;;;;5.77;4.40;;;19.00;99.90;;;;;;5033047;28;20425;-74
2023/05/15 10:11:42;;;;;;;4.23;3.83;;;19.60;99.90;;;;;;5033074;28;20452;-74
2023/05/15 10:14:09;;;;;;;5.60;4.40;;;19.70;99.90;;;;;;5033836;28;20420;-71
2023/05/15 10:16:36;;;;;;;6.03;5.33;;;19.70;99.90;;;;;;5033813;28;20429;-75
2023/05/15 10:19:07;;;;;;;9.60;4.87;;;19.50;99.90;;;;;;5056171;23;20869;-71
2023/05/15 10:21:35;;;;;;;9.00;4.43;;;19.60;99.90;;;;;;5001016;28;20410;-71
2023/05/15 10:24:03;;;;;;;4.53;4.13;;;19.60;99.90;;;;;;5033884;28;20402;-72
2023/05/15 10:26:37;;;;;;;4.70;4.13;;;19.50;99.90;;;;;;5033725;28;20434;-72
2023/05/15 10:29:05;;;;;;;5.10;4.23;;;19.40;99.90;;;;;;5015464;28;20515;-72
2023/05/15 10:31:31;;;;;;;6.07;4.70;;;19.60;99.90;;;;;;5033328;28;20966;-72
2023/05/15 10:33:58;;;;;;;4.43;4.03;;;19.60;99.90;;;;;;5015420;28;20414;-71
2023/05/15 10:36:24;;;;;;;5.23;4.73;;;19.60;99.90;;;;;;5033709;28;20433;-72
2023/05/15 10:38:51;;;;;;;5.03;3.80;;;19.60;99.90;;;;;;5034060;28;20483;-71
2023/05/15 10:41:19;;;;;;;4.83;4.37;;;19.80;99.90;;;;;;5016966;28;20487;-71
2023/05/15 10:43:46;;;;;;;5.77;3.97;;;19.80;99.90;;;;;;5034927;28;20439;-72
2023/05/15 10:46:12;;;;;;;4.10;3.70;;;19.60;99.90;;;;;;5034713;28;20826;-72
2023/05/15 10:48:39;;;;;;;4.57;3.83;;;20.20;99.90;;;;;;5016911;28;20804;-72
2023/05/15 10:51:12;;;;;;;4.27;3.87;;;20.40;99.90;;;;;;5034483;28;20448;-71
2023/05/15 10:53:37;;;;;;;3.87;3.57;;;20.30;99.90;;;;;;5034029;28;20422;-71
2023/05/15 10:56:03;;;;;;;3.83;3.43;;;20.10;99.50;;;;;;5034470;28;20413;-71
2023/05/15 10:58:30;;;;;;;3.80;3.47;;;19.90;98.80;;;;;;5033051;28;20527;-71
2023/05/15 11:00:55;;;;;;;4.00;3.70;;;19.80;99.50;;;;;;5033856;28;20172;-72
2023/05/15 11:03:37;;;;;;;3.70;3.40;;;20.00;99.30;;;;;;5033641;28;20820;-72
2023/05/15 11:06:11;;;;;;;3.70;3.40;;;20.00;99.70;;;;;;5034542;28;20186;-72
2023/05/15 11:08:38;;;;;;;3.77;3.43;;;20.60;99.90;;;;;;5033744;28;20425;-72
2023/05/15 11:11:04;;;;;;;3.70;3.40;;;21.00;99.20;;;;;;5034235;28;20445;-71
2023/05/15 11:14:04;;;;;;;4.67;3.30;;;20.90;98.50;;;;;;5034261;28;20414;-72
2023/05/15 11:16:51;;;;;;;4.63;3.20;;;20.60;98.90;;;;;;5032799;28;20179;-72
2023/05/15 11:19:36;;;;;;;3.70;3.40;;;20.30;98.80;;;;;;5032715;28;20438;-71
2023/05/15 11:22:02;;;;;;;3.57;3.27;;;21.50;97.10;;;;;;5029107;28;20579;-71
2023/05/15 11:24:46;;;;;;;3.53;3.23;;;23.20;95.30;;;;;;5032634;28;20919;-71
2023/05/15 11:27:15;;;;;;;3.47;3.27;;;23.80;94.00;;;;;;5034063;28;20382;-70
2023/05/15 11:30:10;;;;;;;3.20;2.83;;;23.40;94.40;;;;;;5033814;28;20884;-71
2023/05/15 11:32:57;;;;;;;3.50;3.20;;;22.00;95.50;;;;;;5026099;28;20849;-71
2023/05/15 11:35:56;;;;;;;3.40;2.90;;;21.20;96.30;;;;;;5030633;28;20422;-71
2023/05/15 11:38:23;;;;;;;3.73;3.43;;;21.70;94.70;;;;;;5021134;28;20529;-73
2023/05/15 11:41:02;;;;;;;4.43;3.50;;;23.30;94.00;;;;;;5036808;28;20413;-72
2023/05/15 11:43:32;;;;;;;3.53;3.07;;;23.20;93.60;;;;;;5053642;28;20393;-73
2023/05/15 11:46:04;;;;;;;3.03;2.60;;;22.50;93.80;;;;;;5034801;28;20441;-71
2023/05/15 11:48:32;;;;;;;3.30;3.00;;;22.10;94.20;;;;;;5033965;28;20422;-72
2023/05/15 11:50:59;;;;;;;2.77;2.53;;;23.10;92.70;;;;;;5033773;28;20441;-72
2023/05/15 11:53:26;;;;;;;6.30;3.17;;;24.00;90.10;;;;;;5002006;28;20947;-71
2023/05/15 11:55:53;;;;;;;5.87;2.80;;;25.00;89.10;;;;;;5014366;28;20406;-72
2023/05/15 11:58:20;;;;;;;3.10;2.80;;;23.40;91.90;;;;;;5014497;28;20434;-74
2023/05/15 12:00:48;;;;;;;3.40;3.10;;;22.90;92.90;;;;;;5014765;28;20419;-73
2023/05/15 12:03:25;;;;;;;3.93;3.60;;;22.60;93.10;;;;;;5013883;28;20479;-74
2023/05/15 12:05:52;;;;;;;4.37;3.23;;;22.10;93.70;;;;;;4996029;28;20821;-74
2023/05/15 12:08:20;;;;;;;3.40;3.10;;;22.20;92.30;;;;;;5013148;28;20492;-73
2023/05/15 12:10:45;;;;;;;3.73;3.00;;;22.70;91.30;;;;;;5013551;28;20475;-71
2023/05/15 12:13:12;;;;;;;4.63;2.93;;;22.40;92.00;;;;;;5013640;28;20467;-74
2023/05/15 12:15:40;;;;;;;4.57;3.33;;;22.00;93.60;;;;;;5013375;28;20168;-75
2023/05/15 12:18:09;;;;;;;3.53;2.90;;;22.30;93.80;;;;;;4995372;28;20447;-74
2023/05/15 12:20:36;;;;;;;3.00;2.80;;;23.80;88.30;;;;;;5013392;28;20403;-74
2023/05/15 12:23:04;;;;;;;3.60;2.93;;;25.40;84.40;;;;;;5007906;28;20418;-75
2023/05/15 12:25:31;;;;;;;3.43;3.00;;;26.40;80.60;;;;;;5033163;28;20448;-70
2023/05/15 12:27:58;;;;;;;3.73;3.00;;;25.70;81.80;;;;;;5033310;28;20947;-73
2023/05/15 12:30:24;;;;;;;4.70;3.27;;;24.40;86.10;;;;;;5033097;28;20456;-72
2023/05/15 12:32:50;;;;;;;4.07;3.73;;;23.50;87.60;;;;;;5032824;28;20454;-72
2023/05/15 12:35:15;;;;;;;4.60;3.27;;;23.40;88.50;;;;;;5033096;28;20191;-73
2023/05/15 12:37:41;;;;;;;3.20;3.00;;;24.70;86.90;;;;;;5032356;28;20464;-73
2023/05/15 12:40:10;;;;;;;3.33;2.47;;;25.70;83.00;;;;;;5033103;28;20625;-73
2023/05/15 12:42:42;;;;;;;2.43;2.23;;;25.60;76.80;;;;;;5032731;28;20175;-74
2023/05/15 12:45:13;;;;;;;3.30;2.60;;;25.80;75.90;;;;;;5033321;28;20435;-72
2023/05/15 12:47:39;;;;;;;6.13;2.87;;;25.70;74.70;;;;;;5033176;28;20479;-75